OKHBT LPPS-LPMA
Flight info
| Callsign | OKHBT |
|---|---|
| Flight time | N/A |
| Altitude | 2000 |
| Route | VFR |
| Aircraft | C152/L-VGD/A |
Departure
| Time | 2026-05-05 17:48 |
|---|---|
| Airport | Porto Santo Airport (LPPS) |
Arrival
| Time | N/A |
|---|---|
| Airport | Cristiano Ronaldo International Airport (LPMA) |
| Time | Latitude | Longitude | Altitude | Speed | Heading |
|---|---|---|---|---|---|
| 2026-05-05 17:41 | 33.06964 | -16.34831 | 265 ft | 0 kts | 269° |
| 2026-05-05 17:46 | 33.06964 | -16.34850 | 265 ft | 9 kts | 267° |
| 2026-05-05 17:46 | 33.06961 | -16.34918 | 265 ft | 7 kts | 267° |
| 2026-05-05 17:46 | 33.06966 | -16.34973 | 266 ft | 9 kts | 306° |
| 2026-05-05 17:46 | 33.07015 | -16.34983 | 267 ft | 4 kts | 8° |
| 2026-05-05 17:47 | 33.07027 | -16.34982 | 268 ft | 10 kts | 359° |
| 2026-05-05 17:47 | 33.07417 | -16.34994 | 304 ft | 92 kts | 5° |
| 2026-05-05 17:47 | 33.08195 | -16.35063 | 461 ft | 130 kts | 3° |
| 2026-05-05 17:47 | 33.09175 | -16.35104 | 485 ft | 160 kts | 2° |
| 2026-05-05 17:48 | 33.10062 | -16.35312 | 1577 ft | 123 kts | 355° |
| 2026-05-05 17:48 | 33.10855 | -16.35894 | 2006 ft | 156 kts | 324° |
| 2026-05-05 17:48 | 33.11540 | -16.37024 | 2032 ft | 168 kts | 302° |
| 2026-05-05 17:48 | 33.12000 | -16.38391 | 1890 ft | 177 kts | 291° |
| 2026-05-05 17:49 | 33.12004 | -16.39804 | 2154 ft | 170 kts | 256° |
| 2026-05-05 17:49 | 33.11648 | -16.41225 | 1878 ft | 189 kts | 251° |
| 2026-05-05 17:49 | 33.11020 | -16.42564 | 1844 ft | 184 kts | 223° |
| 2026-05-05 17:49 | 33.10000 | -16.43591 | 1463 ft | 191 kts | 214° |
| 2026-05-05 17:50 | 33.08996 | -16.44462 | 1762 ft | 169 kts | 209° |
| 2026-05-05 17:50 | 33.08076 | -16.45352 | 1743 ft | 176 kts | 220° |
| 2026-05-05 17:50 | 33.07137 | -16.46339 | 1557 ft | 180 kts | 216° |
| 2026-05-05 17:50 | 33.06128 | -16.47288 | 1265 ft | 184 kts | 212° |
| 2026-05-05 17:51 | 33.05065 | -16.47924 | 1401 ft | 163 kts | 199° |
| 2026-05-05 17:51 | 33.04101 | -16.48441 | 1641 ft | 152 kts | 199° |
| 2026-05-05 17:51 | 33.03110 | -16.48974 | 1727 ft | 151 kts | 200° |
| 2026-05-05 17:51 | 33.02164 | -16.49579 | 1809 ft | 153 kts | 203° |
| 2026-05-05 17:52 | 33.01227 | -16.50091 | 2018 ft | 138 kts | 186° |
| 2026-05-05 17:52 | 33.00369 | -16.50258 | 2252 ft | 129 kts | 179° |
| 2026-05-05 17:52 | 32.99433 | -16.50480 | 2206 ft | 146 kts | 194° |
| 2026-05-05 17:52 | 32.98472 | -16.50962 | 1980 ft | 155 kts | 194° |
| 2026-05-05 17:53 | 32.97449 | -16.51315 | 1835 ft | 157 kts | 186° |
| 2026-05-05 17:53 | 32.96427 | -16.51712 | 1837 ft | 133 kts | 191° |
| 2026-05-05 17:53 | 32.95785 | -16.51974 | 1627 ft | 156 kts | 190° |
| 2026-05-05 17:53 | 32.94434 | -16.52519 | 1689 ft | 154 kts | 193° |
| 2026-05-05 17:54 | 32.93424 | -16.53003 | 1539 ft | 169 kts | 202° |
| 2026-05-05 17:54 | 32.92755 | -16.53400 | 1629 ft | 163 kts | 202° |
| 2026-05-05 17:54 | 32.91769 | -16.54094 | 1570 ft | 164 kts | 205° |
| 2026-05-05 17:54 | 32.90646 | -16.54963 | 601 ft | 213 kts | 209° |
| 2026-05-05 17:55 | 32.89421 | -16.55892 | 425 ft | 200 kts | 210° |
| 2026-05-05 17:55 | 32.88252 | -16.56780 | 268 ft | 195 kts | 209° |
| 2026-05-05 17:55 | 32.87190 | -16.57678 | 388 ft | 180 kts | 212° |
| 2026-05-05 17:55 | 32.86229 | -16.58628 | 477 ft | 179 kts | 224° |
| 2026-05-05 17:56 | 32.85381 | -16.59620 | 348 ft | 172 kts | 230° |
| 2026-05-05 17:56 | 32.84547 | -16.60609 | 471 ft | 170 kts | 221° |
| 2026-05-05 17:56 | 32.83633 | -16.61574 | 331 ft | 178 kts | 218° |
| 2026-05-05 17:56 | 32.82621 | -16.62450 | 203 ft | 185 kts | 214° |
| 2026-05-05 17:57 | 32.81582 | -16.63308 | 270 ft | 177 kts | 211° |
| 2026-05-05 17:57 | 32.80534 | -16.64053 | 342 ft | 170 kts | 208° |
| 2026-05-05 17:57 | 32.79498 | -16.64757 | 254 ft | 177 kts | 210° |
| 2026-05-05 17:57 | 32.78419 | -16.65456 | 286 ft | 174 kts | 208° |
| 2026-05-05 17:58 | 32.77349 | -16.66146 | 242 ft | 175 kts | 217° |
| 2026-05-05 17:58 | 32.76343 | -16.66972 | 86 ft | 170 kts | 215° |
| 2026-05-05 17:58 | 32.75398 | -16.67730 | 357 ft | 163 kts | 217° |
| 2026-05-05 17:58 | 32.74530 | -16.68493 | 695 ft | 144 kts | 236° |
| 2026-05-05 17:59 | 32.74353 | -16.69623 | 710 ft | 151 kts | 270° |
| 2026-05-05 17:59 | 32.74168 | -16.70879 | 697 ft | 154 kts | 265° |
| 2026-05-05 17:59 | 32.74243 | -16.72110 | 517 ft | 158 kts | 315° |
| 2026-05-05 17:59 | 32.74786 | -16.73008 | 685 ft | 153 kts | 240° |
| 2026-05-05 18:00 | 32.74177 | -16.74086 | 792 ft | 130 kts | 210° |
| 2026-05-05 18:00 | 32.74179 | -16.73904 | 862 ft | 118 kts | 285° |
| 2026-05-05 18:00 | 32.73945 | -16.73763 | 524 ft | 136 kts | 3° |
| 2026-05-05 18:00 | 32.73674 | -16.74402 | 601 ft | 162 kts | 122° |
| 2026-05-05 18:01 | 32.74178 | -16.74255 | 701 ft | 169 kts | 271° |
| 2026-05-05 18:01 | 32.73486 | -16.74207 | 349 ft | 169 kts | 81° |
| 2026-05-05 18:01 | 32.74151 | -16.73398 | 977 ft | 139 kts | 359° |
| 2026-05-05 18:01 | 32.74193 | -16.74134 | 1050 ft | 146 kts | 154° |
| 2026-05-05 18:02 | 32.73136 | -16.74091 | 1175 ft | 167 kts | 261° |
| 2026-05-05 18:02 | 32.73787 | -16.74081 | 790 ft | 159 kts | 69° |
| 2026-05-05 18:02 | 32.73757 | -16.73976 | 726 ft | 143 kts | 81° |
| 2026-05-05 18:02 | 32.74287 | -16.74240 | 1083 ft | 153 kts | 246° |